createdAt,value
2018-04-24T00:01:29.132Z,7.43
2018-04-24T00:03:56.726Z,11.50
2018-04-24T00:06:24.390Z,10.40
2018-04-24T00:08:51.966Z,9.07
2018-04-24T00:11:20.285Z,7.80
2018-04-24T00:13:47.890Z,7.97
2018-04-24T00:16:15.485Z,8.83
2018-04-24T00:18:43.085Z,8.57
2018-04-24T00:21:10.662Z,10.17
2018-04-24T00:23:38.245Z,9.10
2018-04-24T00:26:05.888Z,6.77
2018-04-24T00:28:34.159Z,9.97
2018-04-24T00:31:01.788Z,8.27
2018-04-24T00:33:30.115Z,10.77
2018-04-24T00:35:57.709Z,11.87
2018-04-24T00:38:25.331Z,8.30
2018-04-24T00:40:52.909Z,7.90
2018-04-24T00:43:20.482Z,9.60
2018-04-24T00:45:48.115Z,11.87
2018-04-24T00:48:15.655Z,8.27
2018-04-24T00:50:43.988Z,9.40
2018-04-24T00:53:23.249Z,10.40
2018-04-24T00:55:50.840Z,8.77
2018-04-24T00:58:19.221Z,9.43
2018-04-24T01:00:47.566Z,11.67
2018-04-24T01:03:18.474Z,5.83
2018-04-24T01:05:46.062Z,7.60
2018-04-24T01:08:13.633Z,8.13
2018-04-24T01:10:41.333Z,8.13
2018-04-24T01:13:09.729Z,7.00
2018-04-24T01:15:38.075Z,7.07
2018-04-24T01:18:05.666Z,7.10
2018-04-24T01:20:34.008Z,8.60
2018-04-24T01:23:01.586Z,8.43
2018-04-24T01:25:29.198Z,6.43
2018-04-24T01:27:56.784Z,5.13
2018-04-24T01:30:24.371Z,5.60
2018-04-24T01:32:51.941Z,7.63
2018-04-24T01:35:19.520Z,7.13
2018-04-24T01:37:47.103Z,5.00
2018-04-24T01:40:14.697Z,6.40
2018-04-24T01:42:42.303Z,7.37
2018-04-24T01:45:09.869Z,6.43
2018-04-24T01:47:37.455Z,7.20
2018-04-24T01:50:05.048Z,6.67
2018-04-24T01:52:32.681Z,7.57
2018-04-24T01:55:00.258Z,8.17
2018-04-24T01:57:28.594Z,6.33
2018-04-24T01:59:56.173Z,7.17
2018-04-24T02:02:23.758Z,8.20
2018-04-24T02:04:51.361Z,6.67
2018-04-24T02:07:19.704Z,9.33
2018-04-24T02:09:47.292Z,5.30
2018-04-24T02:12:14.889Z,6.20
2018-04-24T02:14:42.471Z,8.93
2018-04-24T02:17:10.060Z,7.73
2018-04-24T02:19:37.684Z,6.43
2018-04-24T02:22:05.263Z,7.83
2018-04-24T02:24:32.849Z,8.20
2018-04-24T02:27:00.444Z,9.17
2018-04-24T02:29:28.026Z,8.03
2018-04-24T02:31:55.864Z,5.50
2018-04-24T02:34:24.808Z,6.87
2018-04-24T02:36:52.425Z,4.20
2018-04-24T02:39:19.989Z,6.87
2018-04-24T02:41:47.564Z,6.17
2018-04-24T02:44:16.012Z,6.87
2018-04-24T02:46:43.596Z,7.07
2018-04-24T02:49:11.186Z,5.60
2018-04-24T02:51:39.541Z,6.73
2018-04-24T02:54:07.161Z,7.13
2018-04-24T02:56:34.759Z,6.83
2018-04-24T02:59:02.361Z,8.33
2018-04-24T03:01:30.710Z,6.93
2018-04-24T03:03:58.291Z,4.87
2018-04-24T03:06:25.905Z,5.47
2018-04-24T03:08:54.527Z,6.13
2018-04-24T03:11:22.222Z,6.07
2018-04-24T03:13:50.586Z,6.07
2018-04-24T03:16:18.195Z,10.53
2018-04-24T03:18:45.775Z,5.73
2018-04-24T03:21:13.396Z,7.77
2018-04-24T03:23:41.756Z,5.33
2018-04-24T03:26:09.340Z,6.63
2018-04-24T03:28:36.941Z,6.43
2018-04-24T03:31:04.537Z,6.53
2018-04-24T03:33:32.125Z,7.53
2018-04-24T03:35:59.688Z,9.47
2018-04-24T03:38:27.297Z,5.33
2018-04-24T03:40:54.882Z,11.50
2018-04-24T03:43:22.460Z,6.80
2018-04-24T03:45:50.110Z,6.57
2018-04-24T03:48:17.712Z,7.63
2018-04-24T03:50:45.340Z,5.63
2018-04-24T03:53:12.915Z,6.33
2018-04-24T03:55:40.541Z,6.77
2018-04-24T03:58:08.892Z,7.63
2018-04-24T04:00:37.309Z,7.73
2018-04-24T04:03:05.658Z,6.43
2018-04-24T04:05:33.279Z,6.40
2018-04-24T04:08:00.858Z,6.33
2018-04-24T04:10:29.231Z,7.77
2018-04-24T04:12:56.855Z,7.00
2018-04-24T04:15:24.440Z,6.60
2018-04-24T04:18:03.789Z,10.43
2018-04-24T04:20:43.194Z,7.57
2018-04-24T04:23:23.300Z,6.80
2018-04-24T04:25:50.882Z,8.20
2018-04-24T04:28:18.465Z,6.17
2018-04-24T04:30:46.057Z,8.83
2018-04-24T04:33:13.618Z,8.33
2018-04-24T04:35:41.938Z,9.67
2018-04-24T04:38:09.523Z,8.07
2018-04-24T04:40:37.085Z,9.07
2018-04-24T04:43:04.691Z,6.27
2018-04-24T04:45:33.040Z,8.30
2018-04-24T04:48:00.619Z,6.40
2018-04-24T04:50:28.213Z,8.00
2018-04-24T04:52:55.825Z,6.67
2018-04-24T04:55:23.430Z,8.30
2018-04-24T04:57:51.043Z,6.90
2018-04-24T05:00:18.637Z,7.03
2018-04-24T05:02:46.234Z,10.07
2018-04-24T05:05:14.579Z,7.67
2018-04-24T05:07:42.170Z,7.03
2018-04-24T05:10:10.519Z,8.03
2018-04-24T05:12:38.106Z,13.47
2018-04-24T05:15:06.448Z,8.37
2018-04-24T05:17:34.097Z,7.80
2018-04-24T05:20:01.795Z,9.70
2018-04-24T05:22:29.331Z,8.73
2018-04-24T05:24:56.913Z,9.07
2018-04-24T05:27:24.491Z,7.93
2018-04-24T05:29:52.079Z,7.40
2018-04-24T05:32:20.420Z,7.03
2018-04-24T05:34:47.985Z,9.67
2018-04-24T05:37:15.604Z,8.30
2018-04-24T05:39:43.948Z,8.57
2018-04-24T05:42:11.524Z,7.87
2018-04-24T05:44:39.104Z,7.90
2018-04-24T05:47:06.878Z,9.33
2018-04-24T05:49:35.238Z,12.37
2018-04-24T05:52:02.802Z,7.77
2018-04-24T05:54:31.094Z,7.50
2018-04-24T05:56:58.718Z,7.63
2018-04-24T05:59:26.357Z,9.60
2018-04-24T06:01:53.934Z,9.67
2018-04-24T06:04:21.535Z,8.10
2018-04-24T06:06:49.134Z,9.03
2018-04-24T06:09:17.484Z,10.27
2018-04-24T06:11:45.087Z,10.03
2018-04-24T06:14:12.724Z,17.07
2018-04-24T06:16:40.323Z,8.80
2018-04-24T06:19:08.661Z,10.53
2018-04-24T06:21:36.239Z,7.60
2018-04-24T06:24:03.845Z,10.87
2018-04-24T06:26:32.201Z,10.07
2018-04-24T06:29:00.479Z,9.83
2018-04-24T06:31:28.104Z,10.47
2018-04-24T06:33:55.690Z,16.67
2018-04-24T06:36:24.597Z,7.30
2018-04-24T06:38:52.215Z,11.47
2018-04-24T06:41:19.814Z,8.47
2018-04-24T06:43:47.445Z,8.20
2018-04-24T06:46:15.836Z,12.40
2018-04-24T06:48:43.447Z,9.53
2018-04-24T06:51:11.035Z,9.37
2018-04-24T06:53:39.358Z,7.70
2018-04-24T06:56:06.971Z,8.93
2018-04-24T06:58:34.543Z,8.40
2018-04-24T07:01:02.163Z,11.30
2018-04-24T07:03:29.813Z,10.60
2018-04-24T07:05:57.385Z,9.53
2018-04-24T07:08:25.738Z,10.13
2018-04-24T07:10:53.322Z,8.27
2018-04-24T07:13:20.912Z,11.03
2018-04-24T07:15:48.541Z,12.10
2018-04-24T07:18:16.279Z,11.27
2018-04-24T07:20:43.869Z,11.20
2018-04-24T07:23:12.231Z,10.17
2018-04-24T07:25:40.601Z,13.63
2018-04-24T07:28:08.210Z,15.33
2018-04-24T07:30:35.804Z,13.40
2018-04-24T07:33:03.384Z,14.00
2018-04-24T07:35:30.992Z,11.83
2018-04-24T07:38:00.295Z,13.57
2018-04-24T07:40:28.625Z,13.50
2018-04-24T07:42:56.230Z,12.37
2018-04-24T07:45:24.585Z,13.63
2018-04-24T07:47:52.198Z,13.57
2018-04-24T07:50:19.769Z,13.10
2018-04-24T07:52:47.383Z,12.80
2018-04-24T07:55:14.962Z,15.40
2018-04-24T07:57:42.583Z,15.63
2018-04-24T08:00:10.183Z,13.40
2018-04-24T08:02:37.762Z,17.40
2018-04-24T08:05:05.362Z,15.13
2018-04-24T08:07:32.932Z,16.67
2018-04-24T08:10:00.508Z,13.27
2018-04-24T08:12:28.073Z,19.23
2018-04-24T08:14:55.691Z,19.37
2018-04-24T08:17:24.047Z,17.33
2018-04-24T08:19:51.663Z,18.80
2018-04-24T08:22:19.311Z,22.20
2018-04-24T08:24:47.692Z,23.47
2018-04-24T08:27:16.094Z,17.80
2018-04-24T08:29:44.464Z,21.17
2018-04-24T08:32:12.881Z,18.27
2018-04-24T08:34:40.463Z,17.80
2018-04-24T08:37:08.075Z,20.97
2018-04-24T08:39:35.736Z,22.93
2018-04-24T08:42:03.328Z,20.70
2018-04-24T08:44:30.905Z,20.27
2018-04-24T08:46:59.380Z,22.60
2018-04-24T08:49:27.846Z,21.03
2018-04-24T08:51:56.213Z,22.73
2018-04-24T08:54:23.792Z,22.73
2018-04-24T08:56:51.391Z,24.43
2018-04-24T08:59:18.971Z,26.20
2018-04-24T09:01:46.546Z,23.27
2018-04-24T09:04:14.150Z,25.57
2018-04-24T09:06:42.506Z,23.50
2018-04-24T09:09:10.100Z,23.60
2018-04-24T09:11:38.446Z,25.20
2018-04-24T09:14:06.073Z,25.00
2018-04-24T09:16:33.699Z,21.80
2018-04-24T09:19:02.095Z,24.07
2018-04-24T09:21:30.502Z,26.37
2018-04-24T09:23:58.114Z,25.63
2018-04-24T09:26:25.728Z,24.73
2018-04-24T09:28:53.412Z,28.03
2018-04-24T09:31:20.999Z,25.90
2018-04-24T09:33:48.743Z,23.67
2018-04-24T09:36:16.284Z,28.80
2018-04-24T09:38:44.727Z,28.17
2018-04-24T09:41:12.350Z,27.87
2018-04-24T09:43:39.931Z,27.30
2018-04-24T09:46:07.895Z,28.20
2018-04-24T09:48:35.468Z,29.83
2018-04-24T09:51:03.047Z,26.37
2018-04-24T09:53:30.664Z,28.37
2018-04-24T09:55:59.043Z,26.53
2018-04-24T09:58:26.614Z,24.53
2018-04-24T10:00:54.957Z,27.67
2018-04-24T10:03:22.571Z,26.53
2018-04-24T10:05:50.167Z,29.53
2018-04-24T10:08:17.747Z,24.27
2018-04-24T10:10:45.356Z,28.53
2018-04-24T10:13:13.757Z,26.83
2018-04-24T10:15:41.350Z,29.00
2018-04-24T10:18:08.936Z,24.50
2018-04-24T10:20:36.546Z,26.27
2018-04-24T10:23:04.135Z,29.50
2018-04-24T10:25:31.716Z,29.37
2018-04-24T10:27:59.338Z,28.33
2018-04-24T10:30:26.934Z,28.30
2018-04-24T10:32:54.547Z,27.70
2018-04-24T10:35:22.147Z,26.77
2018-04-24T10:37:49.747Z,30.80
2018-04-24T10:40:17.345Z,29.03
2018-04-24T10:42:44.935Z,28.03
2018-04-24T10:45:12.557Z,31.20
2018-04-24T10:47:40.189Z,26.90
2018-04-24T10:50:07.789Z,28.83
2018-04-24T10:52:35.400Z,29.57
2018-04-24T10:55:03.020Z,27.17
2018-04-24T10:57:30.605Z,27.03
2018-04-24T10:59:58.176Z,27.40
2018-04-24T11:02:26.549Z,28.57
2018-04-24T11:04:54.185Z,27.17
2018-04-24T11:07:22.262Z,28.63
2018-04-24T11:09:49.855Z,29.57
2018-04-24T11:12:17.469Z,34.13
2018-04-24T11:14:45.085Z,31.80
2018-04-24T11:17:12.660Z,30.20
2018-04-24T11:19:41.023Z,27.50
2018-04-24T11:22:09.497Z,30.77
2018-04-24T11:24:37.192Z,28.07
2018-04-24T11:27:05.574Z,32.77
2018-04-24T11:29:34.010Z,31.57
2018-04-24T11:32:01.603Z,32.60
2018-04-24T11:34:29.270Z,30.20
2018-04-24T11:36:57.543Z,30.57
2018-04-24T11:39:25.134Z,29.43
2018-04-24T11:41:52.834Z,33.60
2018-04-24T11:44:20.444Z,31.80
2018-04-24T11:46:48.050Z,33.83
2018-04-24T11:49:16.435Z,35.83
2018-04-24T11:51:44.778Z,33.83
2018-04-24T11:54:12.419Z,32.63
2018-04-24T11:56:43.438Z,32.23
2018-04-24T11:59:11.067Z,30.43
2018-04-24T12:01:39.417Z,35.03
2018-04-24T12:04:07.032Z,31.93
2018-04-24T12:06:35.405Z,30.83
2018-04-24T12:09:03.026Z,34.43
2018-04-24T12:11:31.403Z,30.33
2018-04-24T12:13:59.036Z,33.23
2018-04-24T12:16:27.382Z,32.93
2018-04-24T12:18:55.030Z,34.03
2018-04-24T12:21:22.722Z,32.03
2018-04-24T12:23:50.336Z,28.87
2018-04-24T12:26:17.954Z,28.03
2018-04-24T12:28:45.539Z,31.90
2018-04-24T12:31:14.432Z,26.97
2018-04-24T12:33:42.786Z,27.70
2018-04-24T12:36:10.397Z,30.13
2018-04-24T12:38:38.786Z,31.27
2018-04-24T12:41:06.400Z,29.10
2018-04-24T12:43:33.956Z,29.80
2018-04-24T12:46:01.559Z,27.77
2018-04-24T12:48:29.139Z,29.27
2018-04-24T12:50:56.769Z,25.80
2018-04-24T12:53:24.348Z,29.07
2018-04-24T12:55:52.738Z,29.63
2018-04-24T12:58:20.329Z,30.87
2018-04-24T13:00:47.945Z,25.93
2018-04-24T13:03:15.558Z,29.07
2018-04-24T13:05:43.160Z,26.73
2018-04-24T13:08:10.765Z,25.80
2018-04-24T13:10:39.115Z,25.07
2018-04-24T13:13:06.729Z,23.63
2018-04-24T13:15:35.204Z,24.30
2018-04-24T13:18:03.552Z,25.10
2018-04-24T13:20:31.135Z,29.60
2018-04-24T13:22:59.505Z,25.37
2018-04-24T13:25:27.133Z,25.20
2018-04-24T13:27:54.799Z,24.97
2018-04-24T13:30:22.427Z,23.53
2018-04-24T13:32:51.041Z,22.27
2018-04-24T13:35:18.661Z,24.60
2018-04-24T13:37:46.241Z,23.40
2018-04-24T13:40:13.848Z,22.67
2018-04-24T13:42:41.453Z,23.83
2018-04-24T13:45:09.059Z,23.87
2018-04-24T13:47:37.431Z,24.37
2018-04-24T13:50:05.784Z,23.93
2018-04-24T13:52:33.393Z,27.53
2018-04-24T13:55:01.026Z,26.50
2018-04-24T13:57:28.623Z,30.33
2018-04-24T13:59:56.224Z,25.43
2018-04-24T14:02:23.797Z,23.97
2018-04-24T14:04:51.385Z,26.53
2018-04-24T14:07:18.991Z,28.07
2018-04-24T14:09:46.607Z,28.00
2018-04-24T14:12:14.223Z,29.70
2018-04-24T14:14:41.844Z,25.13
2018-04-24T14:17:09.447Z,24.07
2018-04-24T14:19:37.802Z,28.23
2018-04-24T14:22:06.168Z,24.43
2018-04-24T14:24:34.658Z,23.57
2018-04-24T14:27:02.324Z,22.23
2018-04-24T14:29:29.917Z,24.80
2018-04-24T14:31:58.275Z,27.70
2018-04-24T14:34:26.691Z,25.60
2018-04-24T14:36:55.131Z,23.37
2018-04-24T14:39:22.738Z,22.40
2018-04-24T14:41:51.099Z,23.43
2018-04-24T14:44:18.770Z,26.83
2018-04-24T14:46:47.163Z,23.77
2018-04-24T14:49:16.405Z,22.77
2018-04-24T14:51:44.103Z,21.80
2018-04-24T14:54:11.659Z,24.87
2018-04-24T14:56:39.253Z,22.77
2018-04-24T14:59:06.833Z,20.37
2018-04-24T15:01:35.181Z,24.17
2018-04-24T15:04:02.877Z,21.10
2018-04-24T15:06:31.261Z,25.20
2018-04-24T15:08:59.617Z,23.13
2018-04-24T15:11:27.244Z,20.90
2018-04-24T15:13:54.875Z,19.97
2018-04-24T15:16:23.235Z,21.30
2018-04-24T15:18:50.857Z,21.50
2018-04-24T15:21:19.223Z,22.47
2018-04-24T15:23:47.227Z,19.13
2018-04-24T15:26:14.786Z,19.67
2018-04-24T15:28:42.438Z,19.03
2018-04-24T15:31:10.092Z,20.60
2018-04-24T15:33:37.624Z,21.37
2018-04-24T15:36:06.053Z,23.47
2018-04-24T15:38:33.634Z,23.53
2018-04-24T15:41:01.246Z,22.00
2018-04-24T15:43:28.906Z,18.03
2018-04-24T15:45:57.133Z,22.07
2018-04-24T15:48:24.711Z,20.17
2018-04-24T15:50:52.293Z,17.23
2018-04-24T15:53:19.900Z,19.20
2018-04-24T15:55:48.297Z,16.30
2018-04-24T15:58:15.880Z,20.70
2018-04-24T16:00:43.471Z,17.67
2018-04-24T16:03:11.439Z,18.20
2018-04-24T16:05:39.299Z,17.73
2018-04-24T16:08:06.946Z,19.60
2018-04-24T16:10:35.395Z,20.47
2018-04-24T16:13:03.721Z,17.63
2018-04-24T16:15:31.551Z,18.77
2018-04-24T16:18:00.107Z,19.37
2018-04-24T16:20:27.760Z,19.80
2018-04-24T16:22:55.525Z,17.57
2018-04-24T16:25:23.198Z,17.60
2018-04-24T16:27:50.781Z,19.67
2018-04-24T16:30:18.382Z,14.47
2018-04-24T16:32:46.031Z,18.20
2018-04-24T16:35:13.621Z,14.43
2018-04-24T16:37:41.259Z,16.87
2018-04-24T16:40:08.845Z,15.20
2018-04-24T16:42:37.191Z,18.77
2018-04-24T16:45:05.054Z,15.10
2018-04-24T16:47:32.902Z,16.90
2018-04-24T16:50:00.766Z,17.93
2018-04-24T16:52:28.951Z,13.80
2018-04-24T16:54:57.379Z,14.47
2018-04-24T16:57:24.989Z,17.07
2018-04-24T16:59:52.592Z,16.33
2018-04-24T17:02:20.209Z,13.40
2018-04-24T17:04:47.794Z,16.90
2018-04-24T17:07:15.849Z,21.90
2018-04-24T17:09:43.440Z,15.63
2018-04-24T17:12:11.137Z,14.47
2018-04-24T17:14:38.727Z,15.10
2018-04-24T17:17:07.085Z,16.73
2018-04-24T17:19:34.677Z,15.00
2018-04-24T17:22:03.000Z,14.37
2018-04-24T17:24:30.570Z,14.90
2018-04-24T17:26:58.163Z,16.90
2018-04-24T17:29:25.724Z,14.77
2018-04-24T17:31:53.352Z,16.17
2018-04-24T17:34:20.925Z,14.00
2018-04-24T17:36:49.303Z,14.00
2018-04-24T17:39:16.899Z,13.50
2018-04-24T17:41:44.489Z,14.23
2018-04-24T17:44:12.886Z,16.53
2018-04-24T17:46:41.237Z,14.00
2018-04-24T17:49:08.881Z,13.83
2018-04-24T17:51:36.473Z,16.53
2018-04-24T17:54:04.080Z,16.83
2018-04-24T17:56:31.676Z,12.47
2018-04-24T17:58:59.249Z,15.27
2018-04-24T18:01:26.827Z,13.33
2018-04-24T18:03:54.393Z,16.47
2018-04-24T18:06:22.008Z,17.07
2018-04-24T18:08:49.580Z,14.63
2018-04-24T18:11:17.231Z,15.73
2018-04-24T18:13:44.752Z,14.37
2018-04-24T18:16:12.320Z,17.67
2018-04-24T18:18:39.906Z,17.53
2018-04-24T18:21:08.248Z,17.13
2018-04-24T18:23:35.824Z,17.93
2018-04-24T18:26:03.402Z,16.37
2018-04-24T18:28:31.013Z,15.03
2018-04-24T18:30:58.643Z,16.63
2018-04-24T18:33:26.210Z,14.60
2018-04-24T18:35:53.793Z,15.47
2018-04-24T18:38:22.140Z,15.67
2018-04-24T18:40:49.726Z,13.63
2018-04-24T18:43:17.363Z,17.20
2018-04-24T18:45:44.969Z,16.93
2018-04-24T18:48:13.305Z,16.87
2018-04-24T18:50:40.893Z,18.83
2018-04-24T18:53:08.531Z,18.40
2018-04-24T18:55:36.102Z,12.97
2018-04-24T18:58:03.736Z,18.00
2018-04-24T19:00:31.858Z,12.77
2018-04-24T19:02:59.954Z,16.63
2018-04-24T19:05:28.307Z,16.93
2018-04-24T19:07:55.923Z,16.80
2018-04-24T19:10:23.888Z,15.27
2018-04-24T19:12:51.481Z,18.33
2018-04-24T19:15:19.884Z,17.33
2018-04-24T19:17:47.464Z,16.80
2018-04-24T19:20:15.040Z,16.53
2018-04-24T19:22:42.664Z,20.17
2018-04-24T19:25:15.990Z,17.73
2018-04-24T19:27:43.570Z,17.73
2018-04-24T19:30:11.150Z,15.93
2018-04-24T19:32:39.512Z,17.33
2018-04-24T19:35:07.111Z,17.10
2018-04-24T19:37:34.727Z,17.57
2018-04-24T19:40:08.076Z,15.60
2018-04-24T19:42:36.398Z,14.50
2018-04-24T19:45:04.026Z,14.40
2018-04-24T19:47:31.609Z,17.27
2018-04-24T19:50:04.940Z,15.23
2018-04-24T19:52:32.516Z,16.20
2018-04-24T19:55:06.602Z,14.23
2018-04-24T19:57:34.162Z,17.63
2018-04-24T20:00:01.772Z,15.43
2018-04-24T20:02:30.155Z,13.60
2018-04-24T20:04:58.516Z,14.57
2018-04-24T20:07:26.118Z,14.00
2018-04-24T20:09:54.461Z,14.93
2018-04-24T20:12:22.066Z,14.73
2018-04-24T20:14:50.428Z,15.87
2018-04-24T20:17:18.775Z,14.03
2018-04-24T20:19:46.376Z,15.73
2018-04-24T20:22:13.967Z,14.10
2018-04-24T20:24:41.607Z,14.63
2018-04-24T20:27:09.221Z,15.03
2018-04-24T20:29:36.820Z,16.40
2018-04-24T20:32:04.432Z,15.30
2018-04-24T20:34:32.034Z,14.20
2018-04-24T20:36:59.610Z,15.77
2018-04-24T20:39:27.212Z,15.87
2018-04-24T20:41:54.810Z,14.63
2018-04-24T20:44:23.218Z,17.00
2018-04-24T20:46:51.624Z,16.20
2018-04-24T20:49:19.239Z,15.53
2018-04-24T20:51:46.850Z,15.03
2018-04-24T20:54:14.458Z,13.27
2018-04-24T20:56:42.036Z,17.60
2018-04-24T20:59:09.678Z,15.07
2018-04-24T21:01:38.029Z,18.27
2018-04-24T21:04:05.661Z,14.97
2018-04-24T21:06:33.283Z,12.27
2018-04-24T21:09:01.638Z,17.07
2018-04-24T21:11:29.257Z,20.80
2018-04-24T21:13:56.819Z,19.47
2018-04-24T21:16:24.416Z,14.80
2018-04-24T21:18:52.008Z,14.97
2018-04-24T21:21:19.658Z,16.83
2018-04-24T21:23:47.243Z,16.97
2018-04-24T21:26:15.604Z,16.30
2018-04-24T21:28:43.269Z,17.53
2018-04-24T21:31:11.683Z,16.40
2018-04-24T21:33:40.030Z,14.10
2018-04-24T21:36:07.675Z,16.73
2018-04-24T21:38:35.257Z,15.70
2018-04-24T21:41:02.866Z,16.03
2018-04-24T21:43:31.406Z,17.57
2018-04-24T21:45:59.053Z,17.67
2018-04-24T21:48:26.637Z,19.33
2018-04-24T21:50:54.213Z,18.20
2018-04-24T21:53:21.811Z,18.50
2018-04-24T21:55:50.105Z,17.00
2018-04-24T21:58:17.690Z,18.20
2018-04-24T22:00:45.259Z,16.97
2018-04-24T22:03:12.883Z,15.37
2018-04-24T22:05:40.469Z,18.00
2018-04-24T22:08:08.052Z,16.47
2018-04-24T22:10:35.629Z,15.90
2018-04-24T22:13:03.190Z,16.13
2018-04-24T22:15:30.770Z,19.10
2018-04-24T22:17:58.370Z,15.97
2018-04-24T22:20:25.939Z,16.87
2018-04-24T22:22:54.300Z,15.30
2018-04-24T22:25:21.877Z,14.93
2018-04-24T22:27:49.510Z,16.43
2018-04-24T22:30:19.080Z,16.23
2018-04-24T22:32:46.684Z,14.67
2018-04-24T22:35:14.269Z,13.87
2018-04-24T22:37:42.556Z,14.73
2018-04-24T22:40:10.179Z,16.10
2018-04-24T22:42:37.769Z,14.90
2018-04-24T22:45:05.377Z,17.27
2018-04-24T22:47:32.943Z,16.00
2018-04-24T22:50:01.315Z,14.67
2018-04-24T22:52:28.933Z,14.07
2018-04-24T22:54:56.548Z,14.30
2018-04-24T22:57:24.146Z,14.20
2018-04-24T22:59:52.327Z,13.73
2018-04-24T23:02:19.887Z,14.63
2018-04-24T23:04:47.484Z,17.13
2018-04-24T23:07:15.119Z,14.13
2018-04-24T23:09:59.179Z,13.57
2018-04-24T23:12:38.761Z,13.93
2018-04-24T23:15:18.273Z,16.60
2018-04-24T23:17:58.401Z,13.60
2018-04-24T23:20:25.507Z,14.87
2018-04-24T23:22:53.103Z,15.00
2018-04-24T23:25:20.686Z,16.57
2018-04-24T23:27:48.321Z,16.33
2018-04-24T23:30:16.666Z,16.73
2018-04-24T23:32:44.269Z,17.20
2018-04-24T23:35:12.599Z,18.93
2018-04-24T23:37:40.218Z,20.30
2018-04-24T23:40:09.067Z,22.37
2018-04-24T23:42:36.662Z,21.33
2018-04-24T23:45:05.063Z,23.80
2018-04-24T23:47:34.294Z,21.70
2018-04-24T23:50:01.883Z,23.20
2018-04-24T23:52:29.493Z,24.77
2018-04-24T23:54:57.871Z,23.60
2018-04-24T23:57:26.273Z,25.67
2018-04-24T23:59:53.866Z,23.23
